createdAt,value
2022-10-17T00:00:08.351Z,13.63
2022-10-17T00:05:09.801Z,13.58
2022-10-17T00:10:11.796Z,13.5
2022-10-17T00:15:13.220Z,13.5
2022-10-17T00:20:14.659Z,13.47
2022-10-17T00:25:15.776Z,13.38
2022-10-17T00:30:17.866Z,13.35
2022-10-17T00:35:19.478Z,13.34
2022-10-17T00:40:21.463Z,13.31
2022-10-17T00:45:22.690Z,13.27
2022-10-17T00:50:24.449Z,13.24
2022-10-17T00:55:26.344Z,13.17
2022-10-17T01:00:28.145Z,13.1
2022-10-17T01:05:29.288Z,13.1
2022-10-17T01:10:30.866Z,13.04
2022-10-17T01:15:32.969Z,12.99
2022-10-17T01:20:34.711Z,12.98
2022-10-17T01:25:36.043Z,12.93
2022-10-17T01:30:37.330Z,12.83
2022-10-17T01:35:39.249Z,12.81
2022-10-17T01:40:41.001Z,12.75
2022-10-17T01:45:42.771Z,12.65
2022-10-17T01:50:44.122Z,12.62
2022-10-17T01:55:45.520Z,12.56
2022-10-17T02:00:47.556Z,12.5
2022-10-17T02:05:49.013Z,12.45
2022-10-17T02:10:50.750Z,12.41
2022-10-17T02:15:52.500Z,12.36
2022-10-17T02:21:00.894Z,12.33
2022-10-17T02:26:02.535Z,12.3
2022-10-17T02:31:03.903Z,12.27
2022-10-17T02:36:05.345Z,12.2
2022-10-17T02:41:06.528Z,12.18
2022-10-17T02:46:08.736Z,12.16
2022-10-17T02:51:10.651Z,12.07
2022-10-17T02:56:12.074Z,12.04
2022-10-17T03:01:13.987Z,11.99
2022-10-17T03:06:15.392Z,11.9
2022-10-17T03:11:17.345Z,11.87
2022-10-17T03:16:18.671Z,11.84
2022-10-17T03:21:20.168Z,11.8
2022-10-17T03:26:22.135Z,11.76
2022-10-17T03:31:23.391Z,11.71
2022-10-17T03:36:25.164Z,11.6
2022-10-17T03:41:26.648Z,11.55
2022-10-17T03:46:28.279Z,11.48
2022-10-17T03:51:29.697Z,11.41
2022-10-17T03:56:31.801Z,11.33
2022-10-17T04:01:33.490Z,11.32
2022-10-17T04:06:35.539Z,11.29
2022-10-17T04:11:37.221Z,11.25
2022-10-17T04:16:38.681Z,11.24
2022-10-17T04:21:39.957Z,11.22
2022-10-17T04:26:41.864Z,11.18
2022-10-17T04:31:43.232Z,11.14
2022-10-17T04:41:47.054Z,11.09
2022-10-17T05:47:06.873Z,10.63
2022-10-17T05:52:08.032Z,10.62
2022-10-17T06:02:10.998Z,10.65
2022-10-17T06:07:12.215Z,10.67
2022-10-17T06:12:13.558Z,10.75
2022-10-17T06:17:16.316Z,10.8
2022-10-17T06:22:16.872Z,10.87
2022-10-17T06:27:18.701Z,10.94
2022-10-17T06:32:20.588Z,11.02
2022-10-17T06:37:22.227Z,11.11
2022-10-17T06:42:23.654Z,11.25
2022-10-17T06:47:25.326Z,11.38
2022-10-17T06:52:27.357Z,11.5
2022-10-17T06:57:29.255Z,11.71
2022-10-17T07:02:30.689Z,11.95
2022-10-17T07:07:32.358Z,12.61
2022-10-17T07:12:33.944Z,13.28
2022-10-17T07:17:35.427Z,13.6
2022-10-17T07:22:37.188Z,14.12
2022-10-17T07:27:39.337Z,14.62
2022-10-17T07:32:40.644Z,15.2
2022-10-17T07:37:42.647Z,15.68
2022-10-17T07:42:43.973Z,16.29
2022-10-17T07:47:45.902Z,17.21
2022-10-17T07:52:47.087Z,17.78
2022-10-17T07:57:48.515Z,18.77
2022-10-17T08:02:50.189Z,20.06
2022-10-17T08:07:51.898Z,20.03
2022-10-17T08:12:53.591Z,19.98
2022-10-17T08:17:55.530Z,19.92
2022-10-17T08:22:57.456Z,19.95
2022-10-17T08:27:58.870Z,19.89
2022-10-17T08:33:01.023Z,20.12
2022-10-17T08:38:02.776Z,20.45
2022-10-17T08:43:04.357Z,21.07
2022-10-17T08:48:05.748Z,22.68
2022-10-17T08:53:06.936Z,24.09
2022-10-17T08:58:08.549Z,25.68
2022-10-17T09:03:10.512Z,27.05
2022-10-17T09:08:11.944Z,28.46
2022-10-17T09:13:13.807Z,29.59
2022-10-17T09:18:16.695Z,30.73
2022-10-17T09:23:16.896Z,30.72
2022-10-17T09:28:18.795Z,31.66
2022-10-17T09:33:28.798Z,32.82
2022-10-17T09:38:22.358Z,33.57
2022-10-17T09:43:23.769Z,33.78
2022-10-17T09:48:25.479Z,34.34
2022-10-17T09:53:26.705Z,34.56
2022-10-17T09:58:27.849Z,34.82
2022-10-17T10:03:30.012Z,35.41
2022-10-17T10:08:31.159Z,35.32
2022-10-17T10:13:33.029Z,35.25
2022-10-17T10:18:34.705Z,34.99
2022-10-17T10:23:36.513Z,35.03
2022-10-17T10:28:38.500Z,35.22
2022-10-17T10:33:41.649Z,34.97
2022-10-17T10:38:41.860Z,34.68
2022-10-17T10:43:43.658Z,34.84
2022-10-17T10:48:45.121Z,35.13
2022-10-17T10:53:47.240Z,34.57
2022-10-17T10:58:48.726Z,34.88
2022-10-17T11:03:50.676Z,34.46
2022-10-17T11:08:51.916Z,34.14
2022-10-17T11:13:54.140Z,33.53
2022-10-17T11:18:55.819Z,32.05
2022-10-17T11:23:57.372Z,31.07
2022-10-17T11:28:59.395Z,30.17
2022-10-17T11:34:01.261Z,29.46
2022-10-17T11:39:02.568Z,28.64
2022-10-17T11:44:04.453Z,27.98
2022-10-17T11:49:06.021Z,27.58
2022-10-17T11:54:07.951Z,27.13
2022-10-17T11:59:09.520Z,26.44
2022-10-17T12:04:11.653Z,26.21
2022-10-17T12:09:13.703Z,26.03
2022-10-17T12:14:15.624Z,25.81
2022-10-17T12:19:17.562Z,25.67
2022-10-17T12:24:19.564Z,25.56
2022-10-17T12:29:21.779Z,25.48
2022-10-17T12:34:23.134Z,25.41
2022-10-17T12:39:24.467Z,25.24
2022-10-17T12:44:26.212Z,25.14
2022-10-17T12:49:27.814Z,25.07
2022-10-17T12:54:33.620Z,25.03
2022-10-17T12:59:31.826Z,25.02
2022-10-17T13:04:33.753Z,25.03
2022-10-17T13:09:35.361Z,24.94
2022-10-17T13:14:37.205Z,25.04
2022-10-17T13:19:39.303Z,25.17
2022-10-17T13:24:41.042Z,25.16
2022-10-17T13:29:42.457Z,25.15
2022-10-17T13:34:44.242Z,25.13
2022-10-17T13:39:55.068Z,25.12
2022-10-17T13:44:47.971Z,25.03
2022-10-17T13:49:51.558Z,25.02
2022-10-17T13:54:51.181Z,25.17
2022-10-17T13:59:52.900Z,25.21
2022-10-17T14:09:56.846Z,25.12
2022-10-17T14:15:09.973Z,25.08
2022-10-17T14:20:16.355Z,25.02
2022-10-17T14:25:02.779Z,24.94
2022-10-17T14:30:04.013Z,24.92
2022-10-17T14:35:19.083Z,25.01
2022-10-17T14:40:08.250Z,24.98
2022-10-17T14:45:10.059Z,24.86
2022-10-17T14:50:11.136Z,24.8
2022-10-17T14:55:12.971Z,24.72
2022-10-17T15:00:14.581Z,24.65
2022-10-17T15:05:16.427Z,24.53
2022-10-17T15:10:18.555Z,24.5
2022-10-17T15:15:20.428Z,24.48
2022-10-17T15:20:22.461Z,24.38
2022-10-17T15:25:24.408Z,24.23
2022-10-17T15:30:26.525Z,24.11
2022-10-17T15:35:28.245Z,23.94
2022-10-17T15:40:29.455Z,23.81
2022-10-17T15:45:31.378Z,23.66
2022-10-17T15:50:32.755Z,23.48
2022-10-17T15:55:34.609Z,23.28
2022-10-17T16:00:36.673Z,23.05
2022-10-17T16:05:38.310Z,22.81
2022-10-17T16:10:39.993Z,22.66
2022-10-17T16:15:41.446Z,22.41
2022-10-17T16:20:42.657Z,22.21
2022-10-17T16:25:44.685Z,22.01
2022-10-17T16:30:46.264Z,21.77
2022-10-17T16:35:47.598Z,21.56
2022-10-17T16:45:51.468Z,21.06
2022-10-17T16:50:52.710Z,20.8
2022-10-17T16:55:54.492Z,20.46
2022-10-17T17:00:56.472Z,20.29
2022-10-17T17:05:58.427Z,20.12
2022-10-17T17:11:00.118Z,19.83
2022-10-17T17:16:01.787Z,19.7
2022-10-17T17:21:03.061Z,19.5
2022-10-17T17:26:05.045Z,19.21
2022-10-17T17:31:06.944Z,19.09
2022-10-17T17:36:08.865Z,18.91
2022-10-17T17:41:10.756Z,18.7
2022-10-17T17:46:12.826Z,18.61
2022-10-17T17:51:15.026Z,18.45
2022-10-17T17:56:16.345Z,18.28
2022-10-17T18:01:17.803Z,18.2
2022-10-17T18:06:19.673Z,18.06
2022-10-17T18:11:21.982Z,17.91
2022-10-17T18:16:22.935Z,17.84
2022-10-17T18:21:24.189Z,17.71
2022-10-17T18:26:26.148Z,17.62
2022-10-17T18:31:27.793Z,17.52
2022-10-17T18:36:29.511Z,17.32
2022-10-17T18:41:31.373Z,17.26
2022-10-17T18:46:33.341Z,17.17
2022-10-17T18:51:35.085Z,17.02
2022-10-17T18:56:36.650Z,16.94
2022-10-17T19:01:38.574Z,16.86
2022-10-17T20:02:04.496Z,15.88
2022-10-17T20:07:05.746Z,15.72
2022-10-17T20:12:07.540Z,15.67
2022-10-17T20:17:08.857Z,15.65
2022-10-17T20:22:10.949Z,15.59
2022-10-17T20:27:12.514Z,15.56
2022-10-17T20:32:14.609Z,15.56
2022-10-17T20:37:16.443Z,15.49
2022-10-17T20:42:18.191Z,15.45
2022-10-17T20:47:32.819Z,15.42
2022-10-17T20:52:21.506Z,15.3
2022-10-17T20:57:22.697Z,15.26
2022-10-17T21:02:24.493Z,15.23
2022-10-17T21:07:26.278Z,15.08
2022-10-17T21:12:31.512Z,15.04
2022-10-17T21:17:29.671Z,15.01
2022-10-17T21:22:31.576Z,14.93
2022-10-17T21:27:32.865Z,14.89
2022-10-17T21:32:50.942Z,14.88
2022-10-17T21:37:36.296Z,14.8
2022-10-17T21:42:37.915Z,14.76
2022-10-17T21:47:41.748Z,14.73
2022-10-17T21:52:41.571Z,14.65
2022-10-17T21:57:43.420Z,14.59
2022-10-17T22:12:48.039Z,14.44
2022-10-17T22:17:50.009Z,14.4
2022-10-17T22:22:51.894Z,14.35
2022-10-17T22:27:53.845Z,14.29
2022-10-17T22:32:55.167Z,14.26
2022-10-17T22:37:56.882Z,14.23
2022-10-17T22:42:58.540Z,14.15
2022-10-17T22:48:00.339Z,14.15
2022-10-17T22:53:02.413Z,14.13
2022-10-17T22:58:04.396Z,14.05
2022-10-17T23:03:06.236Z,14.04
2022-10-17T23:08:07.726Z,14.01
2022-10-17T23:13:09.184Z,13.91
2022-10-17T23:18:10.956Z,13.91
2022-10-17T23:23:13.259Z,13.9
2022-10-17T23:28:14.855Z,13.81
2022-10-17T23:33:16.607Z,13.79
2022-10-17T23:38:17.803Z,13.76
2022-10-17T23:43:19.408Z,13.63
2022-10-17T23:48:21.436Z,13.56
2022-10-17T23:53:22.990Z,13.55
2022-10-17T23:58:24.933Z,13.44
